Time;durP1;ratioP1;P1;durP2;ratioP2;P2;SDS_P1;SDS_P2;PMS_P1;PMS_P2;Temp;Humidity;BMP_temperature;BMP_pressure;BME280_temperature;BME280_humidity;BME280_pressure;Samples;Min_cycle;Max_cycle;Signal;HPM_P1;HPM_P2
2023/07/29 00:00:22;;;;;;;2.88;1.98;;;;;;;20.40;67.92;100657.38;5142072;27;20039;-64
2023/07/29 00:02:49;;;;;;;4.50;2.30;;;;;;;20.40;67.80;100651.94;5143587;27;20057;-64
2023/07/29 00:05:17;;;;;;;3.47;1.90;;;;;;;20.40;67.63;100653.84;5140709;27;20051;-63
2023/07/29 00:07:45;;;;;;;4.68;2.35;;;;;;;20.39;68.02;100663.13;5142198;27;20051;-63
2023/07/29 00:10:13;;;;;;;3.67;2.10;;;;;;;20.38;67.92;100661.47;5145823;27;20039;-64
2023/07/29 00:12:42;;;;;;;4.18;2.00;;;;;;;20.36;68.04;100658.22;5143258;27;20081;-64
2023/07/29 00:15:10;;;;;;;4.05;2.35;;;;;;;20.37;68.26;100659.84;5142184;27;20039;-63
2023/07/29 00:17:38;;;;;;;5.45;2.30;;;;;;;20.37;68.12;100665.31;5143643;27;20125;-63
2023/07/29 00:20:08;;;;;;;4.10;2.28;;;;;;;20.38;68.10;100661.47;5145995;27;20047;-63
2023/07/29 00:22:36;;;;;;;3.20;2.10;;;;;;;20.36;68.17;100660.94;5142137;27;20051;-63
2023/07/29 00:25:04;;;;;;;4.43;2.50;;;;;;;20.33;68.26;100653.34;5141443;27;20100;-64
2023/07/29 00:27:32;;;;;;;5.88;2.15;;;;;;;20.34;68.34;100650.31;5137667;27;20039;-63
2023/07/29 00:30:01;;;;;;;6.20;2.05;;;;;;;20.34;68.15;100654.97;5143097;27;20043;-64
2023/07/29 00:32:30;;;;;;;7.93;2.28;;;;;;;20.34;68.21;100654.97;5141801;27;20471;-64
2023/07/29 00:35:00;;;;;;;4.53;1.80;;;;;;;20.33;68.29;100648.69;5143180;27;20043;-63
2023/07/29 00:37:29;;;;;;;5.95;2.92;;;;;;;20.33;68.34;100636.97;5137906;27;20464;-62
2023/07/29 00:39:57;;;;;;;6.30;2.40;;;;;;;20.32;68.54;100625.25;5139729;27;20047;-63
2023/07/29 00:42:25;;;;;;;3.90;2.10;;;;;;;20.31;68.51;100623.63;5139986;27;20047;-62
2023/07/29 00:44:53;;;;;;;3.90;2.10;;;;;;;20.32;68.32;100635.34;5139859;27;20039;-63
2023/07/29 00:47:24;;;;;;;3.90;1.88;;;;;;;20.31;68.49;100631.81;5139814;27;21525;-63
2023/07/29 00:49:52;;;;;;;4.32;2.20;;;;;;;20.30;68.42;100626.63;5139950;27;20054;-62
2023/07/29 00:52:20;;;;;;;2.80;2.10;;;;;;;20.30;68.65;100623.91;5145004;27;20043;-62
2023/07/29 00:54:47;;;;;;;4.68;2.38;;;;;;;20.29;68.59;100623.09;5139801;27;20081;-63
2023/07/29 00:57:17;;;;;;;4.30;2.40;;;;;;;20.27;68.52;100621.75;5141059;27;20051;-63
2023/07/29 00:59:45;;;;;;;4.10;1.95;;;;;;;20.27;68.51;100625.31;5142708;27;20196;-63
2023/07/29 01:02:13;;;;;;;5.80;2.20;;;;;;;20.27;68.71;100624.50;5140688;27;20103;-63
2023/07/29 01:04:42;;;;;;;3.60;2.17;;;;;;;20.26;68.57;100631.88;5142616;27;20061;-63
2023/07/29 01:07:18;;;;;;;3.47;2.40;;;;;;;20.27;68.81;100632.69;5139551;27;20062;-63
2023/07/29 01:09:51;;;;;;;;;;;;;;;20.25;68.75;100629.44;5140334;27;20112;-63
2023/07/29 01:12:23;;;;;;;4.85;2.28;;;;;;;20.24;68.83;100625.06;5140526;27;20376;-63
2023/07/29 01:14:59;;;;;;;5.40;2.30;;;;;;;20.23;68.77;100627.00;5135964;27;20130;-63
2023/07/29 01:17:34;;;;;;;4.18;1.98;;;;;;;20.22;68.87;100624.56;5142435;27;20492;-65
2023/07/29 01:20:12;;;;;;;3.47;2.40;;;;;;;20.22;68.64;100622.63;5139412;27;20065;-64
2023/07/29 01:22:40;;;;;;;5.45;2.00;;;;;;;20.21;68.81;100625.66;5137273;27;20044;-64
2023/07/29 01:25:09;;;;;;;3.05;1.98;;;;;;;20.20;68.85;100629.50;5140084;27;20111;-63
2023/07/29 01:27:37;;;;;;;3.40;2.10;;;;;;;20.19;68.80;100631.41;5139040;27;20050;-62
2023/07/29 01:30:06;;;;;;;4.15;2.00;;;;;;;20.18;68.64;100629.78;5141474;27;20051;-62
2023/07/29 01:32:40;;;;;;;3.67;1.88;;;;;;;20.17;68.67;100641.00;5139168;27;20043;-62
2023/07/29 01:35:19;;;;;;;3.28;2.00;;;;;;;20.18;68.87;100642.59;5140799;27;20035;-62
2023/07/29 01:37:51;;;;;;;4.80;2.17;;;;;;;20.17;68.57;100639.06;5135049;27;20109;-62
2023/07/29 01:40:23;;;;;;;4.00;1.98;;;;;;;20.16;68.84;100637.44;5142184;27;20069;-62
2023/07/29 01:42:52;;;;;;;5.63;1.90;;;;;;;20.15;68.75;100644.00;5134888;27;20050;-63
2023/07/29 01:45:20;;;;;;;2.72;2.20;;;;;;;20.14;68.66;100645.09;5140906;27;20043;-63
2023/07/29 01:47:47;;;;;;;2.78;2.13;;;;;;;20.12;68.68;100641.84;5141360;27;20142;-62
2023/07/29 01:50:15;;;;;;;5.38;2.13;;;;;;;20.11;68.74;100651.16;5141282;27;20043;-62
2023/07/29 01:52:43;;;;;;;5.32;1.90;;;;;;;20.09;68.87;100650.63;5137986;27;20051;-61
2023/07/29 01:55:11;;;;;;;4.32;2.28;;;;;;;20.08;68.69;100644.34;5139653;27;20047;-63
2023/07/29 01:57:40;;;;;;;3.58;2.15;;;;;;;20.07;68.75;100644.66;5139444;27;20050;-63
2023/07/29 02:00:09;;;;;;;6.53;2.35;;;;;;;20.05;68.47;100647.66;5140741;27;20043;-63
2023/07/29 02:02:37;;;;;;;3.22;1.95;;;;;;;20.04;68.58;100646.03;5138296;27;20050;-62
2023/07/29 02:05:05;;;;;;;4.88;2.50;;;;;;;20.03;68.64;100644.41;5136920;27;20054;-63
2023/07/29 02:07:33;;;;;;;4.18;2.08;;;;;;;20.02;68.41;100637.31;5138853;27;20042;-63
2023/07/29 02:10:01;;;;;;;3.75;2.25;;;;;;;20.01;68.46;100643.88;5141237;27;20047;-63
2023/07/29 02:12:29;;;;;;;5.95;2.78;;;;;;;20.00;68.46;100647.72;5139865;27;20170;-63
2023/07/29 02:14:58;;;;;;;5.45;2.60;;;;;;;20.00;68.27;100649.63;5144297;27;20108;-64
2023/07/29 02:17:26;;;;;;;3.30;2.45;;;;;;;20.00;68.24;100647.72;5141998;27;20071;-62
2023/07/29 02:19:54;;;;;;;3.53;2.35;;;;;;;19.99;67.94;100624.28;5138944;28;20571;-63
2023/07/29 02:22:22;;;;;;;3.33;2.08;;;;;;;19.99;67.97;100626.19;5144989;28;20054;-62
2023/07/29 02:24:49;;;;;;;5.93;2.38;;;;;;;19.98;68.08;100630.00;5144450;28;20072;-61
2023/07/29 02:27:17;;;;;;;5.50;2.17;;;;;;;19.97;67.93;100629.19;5138471;28;20051;-61
2023/07/29 02:29:45;;;;;;;6.13;2.50;;;;;;;19.96;67.93;100627.56;5143556;28;20039;-63
2023/07/29 02:32:14;;;;;;;2.85;2.05;;;;;;;19.96;67.66;100626.75;5138570;27;20072;-63
2023/07/29 02:34:42;;;;;;;3.13;1.95;;;;;;;19.95;67.66;100634.13;5140613;28;20407;-62
2023/07/29 02:37:10;;;;;;;3.55;2.10;;;;;;;19.96;67.55;100632.22;5143226;28;20070;-63
2023/07/29 02:39:38;;;;;;;3.65;1.70;;;;;;;19.94;67.64;100629.78;5139408;28;20088;-63
2023/07/29 02:42:06;;;;;;;5.88;2.47;;;;;;;19.94;67.43;100632.50;5139950;27;20133;-62
2023/07/29 02:44:34;;;;;;;4.32;2.30;;;;;;;19.93;67.26;100621.88;5139606;27;20043;-63
2023/07/29 02:47:01;;;;;;;3.70;1.92;;;;;;;19.92;67.18;100623.81;5140927;27;20414;-64
2023/07/29 02:49:31;;;;;;;4.20;2.30;;;;;;;19.91;67.17;100622.19;5141587;28;20050;-62
2023/07/29 02:51:58;;;;;;;3.20;1.73;;;;;;;19.90;66.96;100620.53;5140205;28;20068;-63
2023/07/29 02:54:26;;;;;;;3.25;2.10;;;;;;;19.88;66.84;100620.03;5137723;28;20043;-63
2023/07/29 02:56:54;;;;;;;4.60;2.67;;;;;;;19.89;66.91;100624.38;5140317;28;20076;-63
2023/07/29 02:59:22;;;;;;;3.83;2.22;;;;;;;19.87;67.05;100625.75;5140352;28;20043;-63
2023/07/29 03:01:49;;;;;;;3.45;2.00;;;;;;;19.86;66.80;100616.78;5139450;28;20039;-63
2023/07/29 03:04:17;;;;;;;3.35;2.00;;;;;;;19.85;66.91;100626.06;5140155;28;20127;-63
2023/07/29 03:06:48;;;;;;;3.72;1.98;;;;;;;19.85;67.00;100614.34;5136876;27;20040;-63
2023/07/29 03:09:16;;;;;;;3.40;2.20;;;;;;;19.83;66.87;100614.63;5142064;27;20071;-62
2023/07/29 03:11:44;;;;;;;2.78;2.08;;;;;;;19.82;66.92;100610.28;5142094;27;20585;-63
2023/07/29 03:14:12;;;;;;;3.40;1.77;;;;;;;19.81;66.67;100611.38;5144081;27;20082;-63
2023/07/29 03:16:40;;;;;;;4.50;1.83;;;;;;;19.74;66.87;100594.53;5142495;27;20052;-62
2023/07/29 03:19:08;;;;;;;2.78;1.83;;;;;;;19.79;66.66;100619.84;5143684;27;20106;-62
2023/07/29 03:21:36;;;;;;;3.35;1.80;;;;;;;19.78;66.58;100631.84;5142553;27;20043;-62
2023/07/29 03:24:06;;;;;;;3.45;1.90;;;;;;;19.76;66.65;100628.59;5141091;27;20062;-62
2023/07/29 03:26:34;;;;;;;2.33;1.85;;;;;;;19.75;66.62;100629.69;5142140;27;20035;-63
2023/07/29 03:29:02;;;;;;;3.15;1.90;;;;;;;19.74;66.52;100632.72;5143498;27;20099;-63
2023/07/29 03:31:30;;;;;;;5.45;2.17;;;;;;;19.74;66.67;100635.44;5143131;27;20076;-62
2023/07/29 03:33:58;;;;;;;3.65;1.92;;;;;;;19.73;66.64;100622.91;5141801;27;20092;-62
2023/07/29 03:36:26;;;;;;;3.70;1.98;;;;;;;19.72;66.67;100621.28;5142749;27;20051;-63
2023/07/29 03:38:54;;;;;;;5.07;2.10;;;;;;;19.70;66.56;100627.03;5143098;27;20051;-63
2023/07/29 03:41:23;;;;;;;3.90;1.77;;;;;;;19.68;66.64;100629.22;5140563;27;20104;-63
2023/07/29 03:43:51;;;;;;;3.17;1.90;;;;;;;19.68;66.51;100626.50;5142486;27;20043;-63
2023/07/29 03:46:21;;;;;;;3.53;1.90;;;;;;;19.68;66.51;100639.31;5140453;27;20055;-63
2023/07/29 03:48:49;;;;;;;3.53;1.73;;;;;;;19.67;66.64;100635.78;5142148;27;20051;-64
2023/07/29 03:51:17;;;;;;;2.35;1.63;;;;;;;19.66;66.51;100634.16;5143305;27;20060;-63
2023/07/29 03:53:44;;;;;;;3.13;2.20;;;;;;;19.65;66.58;100629.81;5142408;27;20050;-62
2023/07/29 03:56:12;;;;;;;3.53;2.08;;;;;;;19.63;66.54;100620.28;5138253;27;20064;-63
2023/07/29 03:58:41;;;;;;;3.50;2.00;;;;;;;19.63;66.58;100606.66;5141441;27;20104;-63
2023/07/29 04:01:09;;;;;;;4.75;1.95;;;;;;;19.61;66.37;100590.59;5141099;27;20076;-63
2023/07/29 04:03:37;;;;;;;3.47;1.90;;;;;;;19.62;66.50;100602.31;5143432;27;20479;-63
2023/07/29 04:06:05;;;;;;;2.00;1.60;;;;;;;19.61;66.62;100592.50;5142866;27;20047;-62
2023/07/29 04:08:33;;;;;;;2.95;1.75;;;;;;;19.60;66.51;100585.41;5142636;27;20051;-63
2023/07/29 04:11:00;;;;;;;2.70;1.90;;;;;;;19.52;66.44;100578.69;5138656;27;20054;-63
2023/07/29 04:13:28;;;;;;;2.67;1.60;;;;;;;19.58;66.52;100590.34;5139461;27;20064;-63
2023/07/29 04:15:57;;;;;;;3.00;1.67;;;;;;;19.58;66.42;100584.88;5141575;27;20530;-63
2023/07/29 04:18:25;;;;;;;3.90;1.90;;;;;;;19.57;66.59;100599.63;5143008;27;20043;-63
2023/07/29 04:20:53;;;;;;;4.22;1.70;;;;;;;19.57;66.47;100613.25;5144891;27;20088;-62
2023/07/29 04:23:21;;;;;;;2.17;1.48;;;;;;;19.56;66.63;100625.25;5143962;27;21657;-62
2023/07/29 04:25:49;;;;;;;2.35;1.80;;;;;;;19.56;66.34;100636.16;5139588;27;20051;-63
2023/07/29 04:28:17;;;;;;;2.63;1.67;;;;;;;19.54;66.44;100631.00;5135139;27;20047;-63
2023/07/29 04:30:45;;;;;;;2.58;1.60;;;;;;;19.54;66.50;100635.63;5138357;27;20138;-62
2023/07/29 04:33:14;;;;;;;9.93;2.20;;;;;;;19.53;66.33;100642.19;5136868;27;20043;-62
2023/07/29 04:35:42;;;;;;;2.05;1.70;;;;;;;19.53;66.39;100644.91;5141293;27;20047;-62
2023/07/29 04:38:10;;;;;;;2.00;1.40;;;;;;;19.51;66.46;100658.78;5141340;27;20051;-62
2023/07/29 04:40:37;;;;;;;4.40;1.77;;;;;;;19.50;66.30;100655.25;5139399;27;20043;-63
2023/07/29 04:43:05;;;;;;;3.80;1.60;;;;;;;19.50;66.35;100652.53;5140575;27;20047;-62
2023/07/29 04:45:33;;;;;;;3.22;1.60;;;;;;;19.49;66.47;100656.34;5140738;27;20047;-62
2023/07/29 04:48:01;;;;;;;2.70;1.90;;;;;;;19.48;66.38;100646.56;5143338;27;20125;-62
2023/07/29 04:50:30;;;;;;;2.85;1.63;;;;;;;19.48;66.23;100641.09;4784409;27;9999836;-62
2023/07/29 04:52:58;;;;;;;4.50;1.52;;;;;;;19.45;66.07;100647.13;5139185;27;20039;-62
2023/07/29 04:55:26;;;;;;;4.18;1.23;;;;;;;19.46;66.11;100651.47;5137856;27;20067;-62
2023/07/29 04:57:53;;;;;;;2.95;1.77;;;;;;;19.45;66.06;100651.75;5139396;27;20054;-62
2023/07/29 05:00:21;;;;;;;2.80;1.92;;;;;;;19.46;66.14;100653.38;5139928;27;20051;-63
2023/07/29 05:02:49;;;;;;;3.97;1.70;;;;;;;19.44;66.09;100655.59;5139195;27;20046;-63
2023/07/29 05:05:17;;;;;;;3.53;1.75;;;;;;;19.43;66.13;100662.94;5139469;27;20488;-62
2023/07/29 05:07:46;;;;;;;1.27;1.17;;;;;;;19.42;66.20;100672.22;5140330;27;20095;-62
2023/07/29 05:10:14;;;;;;;5.25;1.30;;;;;;;19.42;66.12;100677.69;5137677;27;20068;-62
2023/07/29 05:12:42;;;;;;;2.38;1.38;;;;;;;19.41;66.03;100680.69;5139399;27;20385;-62
2023/07/29 05:15:11;;;;;;;2.60;1.42;;;;;;;19.40;66.17;100673.59;5139283;27;20054;-64
2023/07/29 05:17:39;;;;;;;3.60;1.77;;;;;;;19.39;65.92;100680.16;5139898;27;20043;-63
2023/07/29 05:20:08;;;;;;;3.58;1.95;;;;;;;19.39;66.06;100680.16;5139793;27;20043;-62
2023/07/29 05:22:36;;;;;;;5.22;1.50;;;;;;;19.34;65.75;100664.66;5146347;27;20062;-62
2023/07/29 05:25:06;;;;;;;2.40;1.58;;;;;;;19.36;65.96;100670.63;5140596;27;20058;-63
2023/07/29 05:27:34;;;;;;;1.90;1.50;;;;;;;19.34;66.05;100666.56;5138246;27;20050;-62
2023/07/29 05:30:02;;;;;;;1.98;1.60;;;;;;;19.33;65.91;100673.94;5136462;27;20047;-63
2023/07/29 05:32:30;;;;;;;1.70;1.30;;;;;;;19.32;65.80;100669.56;5140959;27;20059;-63
2023/07/29 05:34:57;;;;;;;2.50;1.55;;;;;;;19.27;65.73;100668.81;5140810;27;20602;-63
2023/07/29 05:37:25;;;;;;;1.90;1.50;;;;;;;19.33;65.91;100673.13;5140665;27;20051;-63
2023/07/29 05:39:53;;;;;;;3.17;1.42;;;;;;;19.32;66.00;100674.22;5139572;27;20047;-62
2023/07/29 05:42:22;;;;;;;2.20;1.40;;;;;;;19.31;65.92;100672.59;5139474;27;20088;-63
2023/07/29 05:44:50;;;;;;;2.92;1.70;;;;;;;19.31;65.88;100667.13;5133418;27;20055;-63
2023/07/29 05:47:17;;;;;;;2.35;1.63;;;;;;;19.31;65.88;100673.41;5136147;27;20047;-64
2023/07/29 05:49:45;;;;;;;1.77;1.42;;;;;;;19.38;65.50;100668.44;5140126;27;20046;-61
2023/07/29 05:52:13;;;;;;;1.70;1.40;;;;;;;19.35;65.54;100669.00;5138844;27;20103;-63
2023/07/29 05:54:42;;;;;;;2.17;1.50;;;;;;;19.33;65.71;100671.22;5138498;27;20051;-63
2023/07/29 05:57:10;;;;;;;2.55;1.50;;;;;;;19.35;65.72;100674.47;5140872;27;20150;-63
2023/07/29 05:59:39;;;;;;;2.35;1.40;;;;;;;19.38;65.77;100665.72;5135910;27;20505;-63
2023/07/29 06:02:07;;;;;;;2.20;1.25;;;;;;;19.38;65.76;100673.06;5140397;27;20043;-63
2023/07/29 06:04:35;;;;;;;2.42;1.48;;;;;;;19.37;65.71;100671.44;5137569;27;20043;-63
2023/07/29 06:07:03;;;;;;;3.10;1.60;;;;;;;19.37;65.93;100666.00;5137750;27;20043;-63
2023/07/29 06:09:31;;;;;;;2.15;1.50;;;;;;;19.36;65.78;100667.91;5141288;27;20092;-63
2023/07/29 06:11:59;;;;;;;3.60;1.35;;;;;;;19.36;65.75;100654.28;5137096;27;20050;-63
2023/07/29 06:14:27;;;;;;;2.72;1.40;;;;;;;19.36;65.62;100651.56;5134952;27;20051;-63
2023/07/29 06:16:56;;;;;;;2.13;1.50;;;;;;;19.36;65.69;100654.28;5137456;27;20077;-64
2023/07/29 06:19:24;;;;;;;2.70;1.33;;;;;;;19.39;65.58;100664.63;5139666;27;20119;-63
2023/07/29 06:21:52;;;;;;;5.45;1.52;;;;;;;19.40;65.64;100655.34;5139666;28;20047;-63
2023/07/29 06:24:19;;;;;;;3.10;1.67;;;;;;;19.43;65.64;100660.22;5132557;28;20058;-64
2023/07/29 06:26:47;;;;;;;1.48;1.30;;;;;;;19.45;65.58;100663.47;5139511;27;20051;-64
2023/07/29 06:29:15;;;;;;;1.67;1.30;;;;;;;19.47;65.73;100655.81;5138060;27;20054;-64
2023/07/29 06:31:43;;;;;;;2.33;1.65;;;;;;;19.51;65.78;100666.97;5132614;28;20115;-64
2023/07/29 06:34:12;;;;;;;2.13;1.40;;;;;;;19.52;65.67;100668.63;5138530;28;20047;-64
2023/07/29 06:36:39;;;;;;;3.40;1.23;;;;;;;19.56;65.61;100666.16;5138208;27;20066;-64
2023/07/29 06:39:07;;;;;;;2.75;1.60;;;;;;;19.58;65.59;100669.41;5139316;27;20043;-64
2023/07/29 06:41:35;;;;;;;2.65;1.38;;;;;;;19.60;65.48;100673.47;5136015;27;20047;-66
2023/07/29 06:44:03;;;;;;;3.95;1.40;;;;;;;19.61;65.47;100671.56;5139610;27;20311;-65
2023/07/29 06:46:30;;;;;;;2.75;1.55;;;;;;;19.59;65.54;100665.56;5144985;27;20043;-65
2023/07/29 06:48:58;;;;;;;2.63;1.63;;;;;;;19.62;65.67;100676.72;5143735;27;20039;-65
2023/07/29 06:51:29;;;;;;;3.38;1.30;;;;;;;19.63;65.51;100678.34;5146519;27;20081;-65
2023/07/29 06:53:57;;;;;;;2.47;1.55;;;;;;;19.63;65.61;100683.00;5140696;27;20055;-65
2023/07/29 06:56:24;;;;;;;2.80;1.50;;;;;;;19.64;65.27;100687.34;5145229;27;20072;-64
2023/07/29 06:58:52;;;;;;;3.10;1.20;;;;;;;19.62;65.51;100687.63;5138973;27;20099;-64
2023/07/29 07:01:20;;;;;;;3.80;1.80;;;;;;;19.61;65.38;100688.72;5142608;27;20063;-66
2023/07/29 07:03:48;;;;;;;7.00;1.60;;;;;;;19.54;65.40;100682.78;5140048;27;20062;-64
2023/07/29 07:06:16;;;;;;;6.35;1.73;;;;;;;19.54;65.71;100693.69;5137786;27;20615;-63
2023/07/29 07:08:45;;;;;;;4.60;1.67;;;;;;;19.54;65.63;100685.50;5141326;27;20488;-64
2023/07/29 07:11:13;;;;;;;2.78;1.92;;;;;;;19.56;65.76;100693.41;5142469;27;20123;-68
2023/07/29 07:13:41;;;;;;;5.05;1.75;;;;;;;19.56;65.75;100696.94;5144832;27;20047;-65
2023/07/29 07:16:09;;;;;;;4.60;1.80;;;;;;;19.56;65.73;100694.22;5145810;27;20039;-64
2023/07/29 07:18:37;;;;;;;3.38;1.48;;;;;;;19.56;65.48;100686.03;5145559;27;20306;-64
2023/07/29 07:21:04;;;;;;;2.45;1.33;;;;;;;19.57;65.60;100695.84;5146777;27;20099;-65
2023/07/29 07:23:32;;;;;;;2.25;1.42;;;;;;;19.58;65.58;100697.47;5146697;27;20146;-64
2023/07/29 07:26:01;;;;;;;1.98;1.50;;;;;;;19.58;65.61;100697.47;5141087;27;20096;-65
2023/07/29 07:28:29;;;;;;;3.72;1.52;;;;;;;19.61;65.66;100691.47;5142823;27;20043;-64
2023/07/29 07:30:57;;;;;;;3.55;1.70;;;;;;;19.64;65.51;100696.34;5139765;27;20043;-64
2023/07/29 07:33:25;;;;;;;1.20;1.10;;;;;;;19.63;65.52;100704.81;5143448;27;20512;-64
2023/07/29 07:35:54;;;;;;;1.55;1.23;;;;;;;19.64;65.49;100711.88;5140583;27;20119;-64
2023/07/29 07:38:22;;;;;;;2.22;1.50;;;;;;;19.64;65.54;100706.44;5145793;27;20043;-65
2023/07/29 07:40:56;;;;;;;3.28;1.55;;;;;;;19.64;65.43;100711.88;5136621;27;20055;-65
2023/07/29 07:43:26;;;;;;;2.47;1.35;;;;;;;19.62;65.38;100704.00;5146980;27;20069;-65
2023/07/29 07:45:59;;;;;;;3.60;1.40;;;;;;;19.66;65.55;100715.13;5140504;27;20043;-66
2023/07/29 07:48:27;;;;;;;2.17;1.38;;;;;;;19.65;65.53;100711.59;5144579;27;20104;-67
2023/07/29 07:50:55;;;;;;;1.23;1.10;;;;;;;19.65;65.69;100711.59;5140696;27;20207;-67
2023/07/29 07:53:22;;;;;;;2.50;1.17;;;;;;;19.67;65.58;100714.84;5142104;27;20107;-65
2023/07/29 07:55:50;;;;;;;3.63;1.42;;;;;;;19.67;65.74;100705.84;5144896;27;20047;-67
2023/07/29 07:58:18;;;;;;;2.17;1.40;;;;;;;19.67;65.84;100712.13;5143073;27;20068;-66
2023/07/29 08:00:47;;;;;;;2.30;1.70;;;;;;;19.70;65.83;100716.19;5143883;27;20054;-65
2023/07/29 08:03:15;;;;;;;2.22;1.40;;;;;;;19.73;65.81;100715.63;5150221;27;20050;-65
2023/07/29 08:05:43;;;;;;;3.92;1.27;;;;;;;19.74;65.69;100706.34;5142947;27;20515;-65
2023/07/29 08:08:10;;;;;;;5.72;1.95;;;;;;;19.76;65.77;100704.97;5142430;27;20107;-65
2023/07/29 08:10:38;;;;;;;2.25;1.42;;;;;;;19.78;65.87;100708.22;5142910;27;20047;-65
2023/07/29 08:13:06;;;;;;;2.13;1.60;;;;;;;19.79;65.75;100709.03;5144588;27;20545;-65
2023/07/29 08:15:34;;;;;;;3.72;1.50;;;;;;;19.79;65.81;100718.03;5143049;27;20426;-64
2023/07/29 08:18:03;;;;;;;2.33;1.27;;;;;;;19.82;65.61;100708.44;5144006;27;20047;-64
2023/07/29 08:20:32;;;;;;;3.33;1.40;;;;;;;19.81;65.68;100713.09;5144057;27;20748;-64
2023/07/29 08:23:00;;;;;;;2.10;1.40;;;;;;;19.83;65.70;100715.53;5143693;27;20527;-64
2023/07/29 08:25:29;;;;;;;2.67;1.48;;;;;;;19.83;65.49;100721.81;5140117;27;20181;-64
2023/07/29 08:27:57;;;;;;;2.95;1.85;;;;;;;19.87;65.44;100719.31;5145520;27;20050;-66
2023/07/29 08:30:25;;;;;;;2.65;1.27;;;;;;;19.88;65.58;100715.50;5141912;27;20134;-64
2023/07/29 08:32:53;;;;;;;1.45;1.33;;;;;;;19.93;65.78;100720.91;5141493;27;20047;-65
2023/07/29 08:35:22;;;;;;;1.88;1.30;;;;;;;19.99;65.47;100711.56;5145554;27;20055;-64
2023/07/29 08:37:50;;;;;;;1.50;1.10;;;;;;;20.04;65.27;100721.63;5143153;27;20043;-65
2023/07/29 08:40:18;;;;;;;4.97;1.55;;;;;;;19.97;65.36;100705.56;5143677;27;20104;-64
2023/07/29 08:42:48;;;;;;;3.35;1.80;;;;;;;19.93;65.28;100709.16;5135591;27;20455;-66
2023/07/29 08:45:18;;;;;;;2.88;1.25;;;;;;;19.93;65.00;100715.44;5137724;27;20047;-68
2023/07/29 08:47:47;;;;;;;4.40;1.40;;;;;;;19.92;64.93;100721.19;5139408;27;20072;-66
2023/07/29 08:50:16;;;;;;;2.42;1.30;;;;;;;19.91;65.14;100708.66;5140835;27;20079;-66
2023/07/29 08:52:46;;;;;;;4.25;1.45;;;;;;;19.96;65.31;100723.03;5140622;27;20467;-63
2023/07/29 08:55:14;;;;;;;2.65;1.10;;;;;;;19.96;65.30;100714.88;5136074;27;20086;-65
2023/07/29 08:57:42;;;;;;;3.25;1.60;;;;;;;19.99;65.47;100718.94;5143129;27;20099;-66
2023/07/29 09:00:11;;;;;;;3.72;1.30;;;;;;;19.97;65.43;100711.03;5137825;27;20708;-66
2023/07/29 09:02:39;;;;;;;2.58;1.30;;;;;;;20.00;65.15;100709.66;5140110;27;20155;-67
2023/07/29 09:05:08;;;;;;;2.60;1.40;;;;;;;20.07;65.71;100699.22;5132898;27;20075;-65
2023/07/29 09:07:38;;;;;;;1.52;1.15;;;;;;;20.07;65.34;100701.94;5139586;27;20429;-65
2023/07/29 09:10:10;;;;;;;4.75;1.17;;;;;;;20.12;65.35;100707.34;5137230;27;20157;-65
2023/07/29 09:12:38;;;;;;;5.32;1.50;;;;;;;20.11;65.68;100717.44;5142549;27;20047;-65
2023/07/29 09:15:07;;;;;;;2.55;1.33;;;;;;;20.11;65.14;100720.19;5137843;27;20051;-64
2023/07/29 09:17:35;;;;;;;2.15;1.40;;;;;;;20.11;65.27;100697.53;5138984;27;20388;-65
2023/07/29 09:20:04;;;;;;;1.15;1.00;;;;;;;20.15;65.85;100704.84;5142878;27;20039;-64
2023/07/29 09:22:32;;;;;;;2.35;1.67;;;;;;;20.21;65.92;100702.06;5145144;27;20142;-64
2023/07/29 09:25:00;;;;;;;2.63;1.30;;;;;;;20.32;65.64;100704.41;5144121;27;20080;-64
2023/07/29 09:27:31;;;;;;;2.60;1.20;;;;;;;20.48;64.88;100699.59;5142563;27;20076;-65
2023/07/29 09:29:59;;;;;;;7.88;1.25;;;;;;;20.40;65.17;100695.59;5142331;27;20043;-64
2023/07/29 09:32:27;;;;;;;4.05;1.30;;;;;;;20.37;65.44;100687.16;5137308;27;20039;-67
2023/07/29 09:34:55;;;;;;;2.90;1.20;;;;;;;20.41;65.42;100701.88;5144638;27;20269;-66
2023/07/29 09:37:24;;;;;;;2.05;1.35;;;;;;;20.41;65.51;100702.69;5142781;27;20054;-66
2023/07/29 09:39:52;;;;;;;1.42;1.05;;;;;;;20.43;65.67;100692.28;5145372;27;20043;-65
2023/07/29 09:42:21;;;;;;;3.78;1.38;;;;;;;20.53;65.53;100698.72;5142514;27;20035;-66
2023/07/29 09:44:51;;;;;;;4.38;1.52;;;;;;;20.54;65.32;100694.91;5146445;27;20566;-67
2023/07/29 09:47:23;;;;;;;3.17;1.20;;;;;;;20.52;65.43;100700.66;5143442;27;20051;-67
2023/07/29 09:49:51;;;;;;;2.65;1.30;;;;;;;20.60;65.50;100704.66;5144940;27;20069;-66
2023/07/29 09:52:20;;;;;;;1.50;1.00;;;;;;;20.61;65.21;100704.34;5141707;27;20051;-66
2023/07/29 09:54:48;;;;;;;2.28;1.50;;;;;;;20.53;65.31;100705.00;5137733;27;20035;-66
2023/07/29 09:57:19;;;;;;;1.25;1.13;;;;;;;20.55;65.18;100710.97;5141374;27;20527;-66
2023/07/29 09:59:56;;;;;;;1.92;1.33;;;;;;;20.58;65.32;100710.41;5142778;27;20200;-67
2023/07/29 10:02:28;;;;;;;1.42;1.05;;;;;;;20.68;65.16;100712.19;5142289;27;20038;-66
2023/07/29 10:04:57;;;;;;;2.25;1.30;;;;;;;20.66;65.11;100701.56;5143955;27;20054;-66
2023/07/29 10:07:25;;;;;;;1.30;1.20;;;;;;;20.67;65.16;100705.09;5141220;27;20159;-67
2023/07/29 10:09:54;;;;;;;2.33;1.30;;;;;;;20.72;65.06;100705.84;5141133;27;20043;-67
2023/07/29 10:12:23;;;;;;;1.58;1.10;;;;;;;20.76;64.90;100695.97;5144070;27;20480;-67
2023/07/29 10:14:51;;;;;;;2.72;1.42;;;;;;;20.76;65.07;100704.16;5143069;27;20138;-67
2023/07/29 10:17:21;;;;;;;1.55;1.13;;;;;;;20.84;64.78;100701.84;5135354;27;20042;-67
2023/07/29 10:19:50;;;;;;;1.42;1.30;;;;;;;20.87;64.64;100696.63;4784981;27;10000557;-66
2023/07/29 10:22:20;;;;;;;3.03;1.15;;;;;;;20.78;64.89;100695.69;5135724;28;20080;-66
2023/07/29 10:24:50;;;;;;;1.90;1.20;;;;;;;20.73;65.06;100691.09;5137754;27;20047;-67
2023/07/29 10:27:20;;;;;;;1.55;1.00;;;;;;;20.70;65.15;100693.59;5137078;27;20111;-66
2023/07/29 10:29:49;;;;;;;2.22;1.17;;;;;;;20.79;65.12;100697.31;5139362;28;20073;-66
2023/07/29 10:32:17;;;;;;;1.67;1.33;;;;;;;20.80;64.94;100686.06;5138428;28;20054;-66
2023/07/29 10:34:46;;;;;;;3.42;1.05;;;;;;;20.72;64.88;100667.63;5140551;27;20067;-65
2023/07/29 10:37:14;;;;;;;1.27;0.88;;;;;;;20.82;64.80;100679.47;5137220;27;20211;-66
2023/07/29 10:39:53;;;;;;;1.23;1.10;;;;;;;20.88;65.27;100683.78;5141448;27;20086;-67
2023/07/29 10:42:21;;;;;;;3.55;1.45;;;;;;;20.96;64.71;100673.00;5137972;27;20039;-67
2023/07/29 10:44:52;;;;;;;1.08;1.00;;;;;;;20.95;64.94;100673.28;5141485;27;20496;-65
2023/07/29 10:47:23;;;;;;;3.65;1.35;;;;;;;21.05;64.39;100678.59;5136566;28;20047;-67
2023/07/29 10:49:54;;;;;;;2.10;1.40;;;;;;;21.10;64.57;100670.34;5139319;28;20050;-66
2023/07/29 10:52:40;;;;;;;2.03;1.30;;;;;;;21.04;64.97;100666.06;5132915;27;20112;-66
2023/07/29 10:55:27;;;;;;;1.63;1.17;;;;;;;21.21;63.85;100660.88;5137561;27;20504;-66
2023/07/29 10:58:09;;;;;;;2.17;1.20;;;;;;;21.30;63.84;100664.59;5136610;27;20096;-66
2023/07/29 11:00:37;;;;;;;1.27;1.13;;;;;;;21.36;63.80;100659.84;5133181;27;20039;-64
2023/07/29 11:03:07;;;;;;;7.28;1.27;;;;;;;21.48;63.36;100673.88;5134763;28;20070;-66
2023/07/29 11:05:51;;;;;;;2.08;1.40;;;;;;;21.54;63.46;100667.19;5138820;27;20043;-66
2023/07/29 11:08:21;;;;;;;3.28;1.23;;;;;;;21.47;63.75;100674.16;5132584;28;20120;-68
2023/07/29 11:11:04;;;;;;;2.65;1.40;;;;;;;21.48;63.67;100673.06;5138528;27;20395;-66
2023/07/29 11:13:33;;;;;;;5.78;1.20;;;;;;;21.52;63.54;100669.41;5139986;27;20075;-67
2023/07/29 11:16:01;;;;;;;2.40;1.08;;;;;;;21.47;63.74;100674.16;5134723;28;20043;-68
2023/07/29 11:18:30;;;;;;;3.92;1.35;;;;;;;21.51;64.01;100666.97;5132383;28;20092;-68
2023/07/29 11:21:00;;;;;;;2.15;0.98;;;;;;;21.57;63.29;100674.00;5137248;27;20135;-67
2023/07/29 11:23:31;;;;;;;1.25;0.95;;;;;;;21.41;63.98;100670.69;5141361;28;20400;-66
2023/07/29 11:25:59;;;;;;;2.55;1.27;;;;;;;21.31;64.28;100679.88;5137876;27;20043;-68
2023/07/29 11:28:27;;;;;;;2.88;1.48;;;;;;;21.30;64.53;100688.38;5139254;27;20055;-68
2023/07/29 11:30:55;;;;;;;2.40;1.40;;;;;;;21.36;64.45;100679.78;5142651;27;20115;-67